EmailTwitter


Surface observations / United States / KJFK (74486)

Regions: Quebec | Canada | USA | Europe | France | UK | Elsewhere
Station
Display
Info & Location for KJFK (74486) | Help decoding METAR

Weather Conditions observed on 2018/05/27 at 04:51 UTC at NEW YORK/JF KENN, NY (KJFK)

Sky conditions: partly cloudy.

Temperature: 20.6 Celsius.

Dewpoint: 18.3 Celsius.

Relative Humidity: 87%

Humidex: 27.

Winds: Calm at 0 km/h or 0 knots.

Mean Sea level Pressure: 101.19 kilopascals.

Altimeter Setting (QNH): 101.18 kilopascals or 29.88 inches of mercury.

Horizontal visibility: 10.00 statute miles or 16.00 kilometers.

Height of the Ceiling: 3962 metres ( 13000 feet ).

Coded METAR:

KJFK 270451Z 00000KT 10SM FEW060 BKN130 BKN200 BKN250 21/18 A2988 RMK AO2

SLP119 T02060183 402720194=